Latest Weather Observations for Grafton AgRS

IDN60801

Issued at 10:03 pm EST Tuesday 25 April 2017 (issued every 30 minutes, with the page automatically refreshed every 10 minutes)

About weather observations | Map of weather stations | Latest weather observations for NSW | Other Formats
Station Details ID: 058077 Name: GRAFTON RESEARCH STN Lat: -29.62 Lon: 152.96 Height: 25.0 m
Data from the previous 72 hours. | See also: Recent months for locations in New South Wales
Date/Time
EST
Temp
°C
App
Temp
°C
Dew
Point
°C
Rel
Hum
%
Delta-T
°C
Wind Press
QNH
hPa
Press
MSL
hPa
Rain since
9am
mm
Dir  Spd
km/h
Gust
km/h
Spd
kts
Gust
kts
25/10:00pm 18.4 19.7 17.1 92 0.8 NNE 6 11 3 6 - - 0.0
25/09:30pm 18.5 20.1 16.8 90 1.0 NE 4 9 2 5 - - 0.0
25/09:00pm 18.8 21.0 17.5 92 0.8 ENE 2 6 1 3 - - 0.0
25/08:30pm 18.8 21.2 16.9 89 1.1 CALM 0 0 0 0 - - 0.0
25/08:00pm 19.2 20.4 17.3 89 1.2 N 7 9 4 5 - - 0.0
25/07:30pm 19.6 21.5 17.7 89 1.2 NE 4 9 2 5 - - 0.0
25/07:00pm 19.9 22.1 17.5 86 1.5 NE 2 6 1 3 - - 0.0
25/06:30pm 20.5 21.9 17.7 84 1.7 NNE 7 13 4 7 - - 0.0
25/06:00pm 20.9 22.4 17.7 82 2.0 NE 6 11 3 6 - - 0.0
25/05:30pm 21.9 22.8 16.2 70 3.4 ENE 6 9 3 5 - - 0.0
25/05:00pm 23.4 23.7 16.0 63 4.5 NNE 9 15 5 8 - - 0.0
25/04:30pm 24.5 24.8 16.0 59 5.2 NNE 9 15 5 8 - - 0.0
25/04:00pm 25.2 24.8 16.1 57 5.6 NNE 13 20 7 11 - - 0.0
25/03:30pm 25.4 24.4 15.7 55 5.9 NNE 15 22 8 12 - - 0.0
25/03:00pm 25.9 26.0 16.5 56 5.8 NNE 11 19 6 10 - - 0.0
25/02:30pm 26.2 26.0 16.7 56 5.9 NNE 13 20 7 11 - - 0.0
25/02:00pm 26.2 26.3 16.4 54 6.0 NNE 11 19 6 10 - - 0.0
25/01:30pm 25.0 24.6 15.3 55 5.8 N 11 19 6 10 - - 0.0
25/01:00pm 25.7 25.9 15.7 54 6.1 N 9 19 5 10 - - 0.0
25/12:30pm 25.0 24.0 14.5 52 6.3 NNW 13 20 7 11 - - 0.0
25/12:00pm 25.5 26.6 17.9 63 4.8 N 9 19 5 10 - - 0.0
25/11:30am 25.0 27.4 18.0 65 4.4 N 2 9 1 5 - - 0.0
25/11:00am 23.1 24.5 18.6 76 2.8 ESE 9 13 5 7 - - 0.0
25/10:30am 21.7 23.2 17.7 78 2.5 SSW 6 11 3 6 - - 0.0
25/10:00am 21.0 22.1 17.0 78 2.4 SE 7 11 4 6 - - 0.0
25/09:30am 20.3 21.8 17.7 85 1.6 WSW 6 9 3 5 - - 0.0
25/09:00am 18.9 20.1 16.9 88 1.2 NW 6 9 3 5 - - 0.0
25/08:30am 17.8 18.4 16.8 94 0.6 WNW 9 11 5 6 - - 0.0
25/08:00am 16.6 18.8 16.4 99 0.1 CALM 0 0 0 0 - - 0.0
25/07:30am 15.0 16.6 14.8 99 0.1 CALM 0 0 0 0 - - 0.0
25/07:00am 14.8 16.3 14.6 99 0.1 CALM 0 0 0 0 - - 0.0
25/06:30am 14.0 15.2 13.7 98 0.2 CALM 0 0 0 0 - - 0.0
25/06:00am 13.9 15.0 13.6 98 0.2 CALM 0 0 0 0 - - 0.0
25/05:30am 14.1 15.3 13.8 98 0.2 CALM 0 0 0 0 - - 0.0
25/05:00am 14.8 16.2 14.5 98 0.2 CALM 0 0 0 0 - - 0.0
25/04:30am 14.9 16.4 14.6 98 0.2 CALM 0 0 0 0 - - 0.0
25/04:00am 15.2 16.8 14.9 98 0.2 CALM 0 0 0 0 - - 0.0
25/03:30am 15.4 17.0 14.9 97 0.3 CALM 0 0 0 0 - - 0.0
25/03:00am 15.5 17.2 15.2 98 0.2 CALM 0 0 0 0 - - 0.0
25/02:30am 15.8 17.6 15.5 98 0.2 CALM 0 0 0 0 - - 0.0
25/02:00am 15.6 17.3 15.3 98 0.2 CALM 0 0 0 0 - - 0.0
25/01:30am 14.9 16.3 14.4 97 0.3 CALM 0 0 0 0 - - 0.0
25/01:00am 15.2 16.7 14.7 97 0.3 CALM 0 0 0 0 - - 0.0
25/12:30am 15.5 17.1 14.9 96 0.3 CALM 0 0 0 0 - - 0.0
25/12:00am 15.7 17.4 15.1 96 0.3 CALM 0 0 0 0 - - 0.0
 
Date/Time
EST
Temp
°C
App
Temp
°C
Dew
Point
°C
Rel
Hum
%
Delta-T
°C
Wind Press
QNH
hPa
Press
MSL
hPa
Rain since
9am
mm
Dir  Spd
km/h
Gust
km/h
Spd
kts
Gust
kts
24/11:30pm 16.1 17.9 15.5 96 0.3 CALM 0 0 0 0 - - 0.0
24/11:00pm 16.2 18.0 15.6 96 0.4 CALM 0 0 0 0 - - 0.0
24/10:30pm 16.4 18.2 15.4 94 0.6 CALM 0 0 0 0 - - 0.0
24/10:00pm 16.7 18.7 15.9 95 0.5 CALM 0 0 0 0 - - 0.0
24/09:30pm 17.1 18.3 16.0 93 0.6 WNW 4 6 2 3 - - 0.0
24/09:00pm 17.2 18.0 15.9 92 0.8 WNW 6 7 3 4 - - 0.0
24/08:30pm 17.1 17.5 15.4 90 1.0 W 7 9 4 5 - - 0.0
24/08:00pm 17.6 19.6 15.9 90 1.0 CALM 0 0 0 0 - - 0.0
24/07:30pm 18.0 19.9 15.8 87 1.3 CALM 0 0 0 0 - - 0.0
24/07:00pm 18.4 20.3 15.8 85 1.5 CALM 0 0 0 0 - - 0.0
24/06:30pm 19.0 20.2 15.9 82 1.8 ENE 4 6 2 3 - - 0.0
24/06:00pm 19.6 19.8 15.7 78 2.3 ENE 9 11 5 6 - - 0.0
24/05:30pm 20.4 20.5 15.6 74 2.9 ENE 9 13 5 7 - - 0.0
24/05:00pm 21.7 20.6 15.3 67 3.8 E 15 20 8 11 - - 0.0
24/04:30pm 22.6 22.1 15.9 66 4.0 E 13 19 7 10 - - 0.0
24/04:00pm 23.0 22.6 16.3 66 4.1 E 13 20 7 11 - - 0.0
24/03:30pm 23.9 22.9 15.7 60 5.0 E 15 20 8 11 - - 0.0
24/03:00pm 24.9 24.1 15.2 54 5.8 ENE 13 19 7 10 - - 0.0
24/02:30pm 25.3 25.5 14.7 51 6.3 ENE 7 11 4 6 - - 0.0
24/02:00pm 25.3 25.0 13.2 47 7.1 ENE 7 11 4 6 - - 0.0
24/01:30pm 25.4 25.8 13.6 48 6.9 W 4 7 2 4 - - 0.0
24/01:00pm 25.0 24.9 13.9 50 6.5 ENE 7 13 4 7 - - 0.0
24/12:30pm 24.2 23.8 14.0 53 6.0 E 9 13 5 7 - - 0.0
24/12:00pm 24.1 24.1 15.3 58 5.3 E 9 15 5 8 - - 0.0
24/11:30am 23.9 24.8 16.7 64 4.4 SSE 7 11 4 6 - - 0.0
24/11:00am 23.3 24.6 17.1 68 3.8 SE 6 11 3 6 - - 0.0
24/10:30am 22.3 23.1 16.3 69 3.6 SW 7 11 4 6 - - 0.0
24/10:00am 21.6 22.7 18.0 80 2.2 SW 9 11 5 6 - - 0.0
24/09:30am 20.0 21.6 17.0 83 1.8 S 4 9 2 5 - - 0.0
24/09:00am 18.8 19.5 17.1 90 1.0 SW 9 11 5 6 - - 0.0
24/08:30am 17.5 18.4 16.2 92 0.8 W 6 9 3 5 - - -
24/08:00am 16.4 16.7 15.9 97 0.3 W 9 13 5 7 - - -
24/07:30am 15.6 16.0 15.4 99 0.1 W 7 9 4 5 - - -
24/07:00am 14.4 14.6 14.2 99 0.1 W 6 9 3 5 - - -
24/06:30am 13.8 14.5 13.5 98 0.2 NW 2 6 1 3 - - -
24/06:00am 13.7 14.0 13.4 98 0.2 WNW 4 7 2 4 - - 0.0
24/05:30am 13.8 13.6 13.5 98 0.2 WNW 7 9 4 5 - - 0.0
24/05:00am 14.4 15.3 14.1 98 0.2 NW 2 7 1 4 - - 0.0
24/04:30am 14.6 14.6 14.1 97 0.3 WNW 7 9 4 5 - - 0.0
24/04:00am 15.0 15.4 14.7 98 0.2 W 6 7 3 4 - - 0.0
24/03:30am 15.0 14.8 14.7 98 0.2 NW 9 11 5 6 - - 0.0
24/03:00am 15.2 15.1 14.9 98 0.2 WNW 9 13 5 7 - - 0.0
24/02:30am 15.2 15.4 14.7 97 0.3 NW 7 9 4 5 - - 0.0
24/02:00am 15.5 16.7 14.9 96 0.3 WNW 2 6 1 3 - - 0.0
24/01:30am 15.7 16.2 15.1 96 0.3 WNW 6 7 3 4 - - 0.0
24/01:00am 16.0 16.4 15.4 96 0.3 W 7 7 4 4 - - 0.0
24/12:30am 16.2 16.7 15.6 96 0.4 W 7 9 4 5 - - 0.0
24/12:00am 16.3 17.0 15.5 95 0.5 W 6 7 3 4 - - 0.0
 
Date/Time
EST
Temp
°C
App
Temp
°C
Dew
Point
°C
Rel
Hum
%
Delta-T
°C
Wind Press
QNH
hPa
Press
MSL
hPa
Rain since
9am
mm
Dir  Spd
km/h
Gust
km/h
Spd
kts
Gust
kts
23/11:30pm 16.6 17.7 15.6 94 0.6 W 4 9 2 5 - - 0.0
23/11:00pm 17.2 18.9 16.1 93 0.7 WNW 2 6 1 3 - - 0.0
23/10:30pm 17.6 19.6 15.9 90 1.0 CALM 0 0 0 0 - - 0.0
23/10:00pm 18.0 20.0 16.0 88 1.2 CALM 0 0 0 0 - - 0.0
23/09:30pm 18.3 20.3 16.1 87 1.3 CALM 0 0 0 0 - - 0.0
23/09:00pm 18.5 20.5 16.1 86 1.4 CALM 0 0 0 0 - - 0.0
23/08:30pm 18.8 20.9 16.2 85 1.6 CALM 0 0 0 0 - - 0.0
23/08:00pm 18.8 20.8 15.9 83 1.7 CALM 0 0 0 0 - - 0.0
23/07:30pm 19.2 21.2 16.1 82 1.8 CALM 0 6 0 3 - - 0.0
23/07:00pm 19.4 20.2 15.9 80 2.1 E 6 7 3 4 - - 0.0
23/06:30pm 19.8 21.7 15.7 77 2.4 CALM 0 6 0 3 - - 0.0
23/06:00pm 20.3 21.1 15.9 76 2.6 ENE 6 7 3 4 - - 0.0
23/05:30pm 20.8 21.5 16.0 74 2.9 ENE 7 9 4 5 - - 0.0
23/05:00pm 21.4 21.3 15.9 71 3.3 E 11 15 6 8 - - 0.0
23/04:30pm 22.1 22.7 15.7 67 3.8 ENE 7 13 4 7 - - 0.0
23/04:00pm 23.9 24.2 14.9 57 5.4 ENE 7 19 4 10 - - 0.0
23/03:30pm 24.8 25.6 12.7 47 7.0 CALM 0 6 0 3 - - 0.0
23/03:00pm 25.4 26.3 13.9 49 6.8 NNE 2 6 1 3 - - 0.0
23/02:30pm 25.1 25.2 13.9 49 6.6 N 6 9 3 5 - - 0.0
23/02:00pm 23.9 24.4 14.9 57 5.4 NNE 6 9 3 5 - - 0.0
23/01:30pm 23.9 24.9 14.3 55 5.7 NE 2 7 1 4 - - 0.0
23/01:00pm 24.2 24.2 14.3 54 5.9 SE 7 13 4 7 - - 0.0
23/12:30pm 23.7 24.5 13.6 53 5.9 NW 2 6 1 3 - - 0.0
23/12:00pm 23.4 23.5 14.4 57 5.3 S 7 13 4 7 - - 0.0
23/11:30am 23.2 24.0 14.7 58 5.0 W 4 13 2 7 - - 0.0
23/11:00am 22.9 23.9 16.4 67 4.0 S 6 9 3 5 - - 0.0
23/10:30am 22.0 22.7 16.1 69 3.6 SSW 7 9 4 5 - - 0.0
23/10:00am 21.2 22.0 16.4 74 2.9 SSW 7 11 4 6 - - 0.0
23/09:30am 21.0 22.1 17.0 78 2.4 WSW 7 11 4 6 - - 0.0
23/09:00am 19.0 19.9 16.6 86 1.4 WSW 7 11 4 6 - - 0.2
23/08:30am 18.5 19.2 16.1 86 1.4 W 7 11 4 6 - - 0.2
23/08:00am 17.7 18.6 16.7 94 0.6 WSW 7 9 4 5 - - 0.2
23/07:30am 16.0 16.7 15.5 97 0.3 W 6 9 3 5 - - 0.2
23/07:00am 15.7 16.1 15.2 97 0.3 W 7 9 4 5 - - 0.2
23/06:30am 15.5 15.9 15.2 98 0.2 NW 7 9 4 5 - - 0.2
23/06:00am 15.2 16.7 14.7 97 0.3 CALM 0 4 0 2 - - 0.2
23/05:30am 15.2 15.1 14.9 98 0.2 NNW 9 9 5 5 - - 0.2
23/05:00am 15.1 15.3 14.6 97 0.3 NW 7 9 4 5 - - 0.2
23/04:30am 15.2 15.4 14.7 97 0.3 W 7 9 4 5 - - 0.2
23/04:00am 15.4 15.7 14.9 97 0.3 W 7 9 4 5 - - 0.2
23/03:30am 15.2 15.4 14.6 96 0.3 WNW 7 9 4 5 - - 0.2
23/03:00am 15.2 15.5 14.4 95 0.5 WNW 6 9 3 5 - - 0.2
23/02:30am 15.7 17.2 14.7 94 0.6 CALM 0 2 0 1 - - 0.2
23/02:00am 15.9 17.2 15.1 95 0.5 NW 2 7 1 4 - - 0.2
23/01:30am 15.8 17.4 14.8 94 0.6 CALM 0 0 0 0 - - 0.2
23/01:00am 16.0 17.6 15.0 94 0.6 CALM 0 0 0 0 - - 0.2
23/12:30am 16.1 17.7 15.0 93 0.6 CALM 0 0 0 0 - - 0.2
23/12:00am 16.4 18.1 15.1 92 0.8 CALM 0 0 0 0 - - 0.2
 
Date/Time
EST
Temp
°C
App
Temp
°C
Dew
Point
°C
Rel
Hum
%
Delta-T
°C
Wind Press
QNH
hPa
Press
MSL
hPa
Rain since
9am
mm
Dir  Spd
km/h
Gust
km/h
Spd
kts
Gust
kts
22/11:30pm 17.1 18.9 15.4 90 1.0 CALM 0 4 0 2 - - 0.2
22/11:00pm 17.1 17.5 15.4 90 1.0 W 7 7 4 4 - - 0.2
22/10:30pm 16.6 17.1 15.1 91 0.9 W 6 7 3 4 - - 0.2

Other Formats:

Comma delimited format used in spreadsheet applications
http://www.bom.gov.au/fwo/IDN60801/IDN60801.95571.axf

JavaScript Object Notation format (JSON) in row-major order
http://www.bom.gov.au/fwo/IDN60801/IDN60801.95571.json